Terminal Aerodrome Forecast
Issued by NWS

Home | Current Version | Previous Version | Text Only | Print | Product List | Glossary On
Versions: 1 2 3 4 5 6 7 8 9 10 11 12 13 14 15 16 17
000
FTUS42 KILM 010200 CCA
TAFCRE
TAF COR
KCRE 010224Z 0102/0124 09014KT P6SM VCSH SCT025 BKN080
     FM010400 08007KT P6SM VCTS SCT025CB BKN070
      TEMPO 0105/0109 VRB20KT 3SM SHRA BKN020
     FM011000 07007KT 6SM -SHRA SCT025 BKN060
     FM011700 11008KT P6SM VCTS SCT025 BKN040CB=

USA.gov is the U.S. government's official web portal to all federal, state and local government web resources and services.